Frilaens III — LK8780 — position and weather

sailwx.info

Track history (hours):
 
Tides and Currents Weather Stations Pressure Air Temp Water Temp Dewpoint Dewpoint Depression Visibility Wind Speed Wind Dir Waves Ship Positions

Frilaens III

Last reported at 2017-Aug-19 17:26 UTC. Time now 2017-Aug-21 08:16 UTC.
Position N 52°24' E 004°54'.

Length 12 m.

Type: Sailing vessel. MMSI: 257640790.

Date/timePositionNaut miles runAvg speedWind from/ knotsBaromVisibWave heightAir tempDewpointWater temp
2017-Aug-19 17:26N 52°24' E 004°54'10 6.4
2017-Aug-19 15:55N 52°28' E 004°39'2 5.1
2017-Aug-19 15:30N 52°28' E 004°36'1 2.4
2017-Aug-19 14:58N 52°28' E 004°34'102 3.3
2017-Aug-18 07:48N 51°13' E 002°42'3 8.4
2017-Aug-18 07:29N 51°11' E 002°39'5 8.5
2017-Aug-18 06:56N 51°08' E 002°33'97 2.1
2017-Aug-16 09:30N 50°46' E 000°04'8 0.6
2017-Aug-15 19:24N 50°48' W 000°09'3 6.6
2017-Aug-15 18:52N 50°46' W 000°14'2 6.4
2017-Aug-15 18:30N 50°45' W 000°17'  
Track history (hours):
 
Tides and Currents Weather Stations Pressure Air Temp Water Temp Dewpoint Dewpoint Depression Visibility Wind Speed Wind Dir Waves Ship Positions

Frilaens III

Last reported at 2017-Aug-19 17:26 UTC. Time now 2017-Aug-21 08:16 UTC.
Position N 52°24' E 004°54'.

Length 12 m.

Type: Sailing vessel. MMSI: 257640790.

Date/timePositionNaut miles runAvg speedWind from/ knotsBaromVisibWave heightAir tempDewpointWater temp
2017-Aug-19 17:26N 52°24' E 004°54'10 6.4
2017-Aug-19 15:55N 52°28' E 004°39'2 5.1
2017-Aug-19 15:30N 52°28' E 004°36'1 2.4
2017-Aug-19 14:58N 52°28' E 004°34'102 3.3
2017-Aug-18 07:48N 51°13' E 002°42'3 8.4
2017-Aug-18 07:29N 51°11' E 002°39'5 8.5
2017-Aug-18 06:56N 51°08' E 002°33'97 2.1
2017-Aug-16 09:30N 50°46' E 000°04'8 0.6
2017-Aug-15 19:24N 50°48' W 000°09'3 6.6
2017-Aug-15 18:52N 50°46' W 000°14'2 6.4
2017-Aug-15 18:30N 50°45' W 000°17'  

Dump ship's entire track history